Time;durP1;ratioP1;P1;durP2;ratioP2;P2;SDS_P1;SDS_P2;PMS_P1;PMS_P2;Temp;Humidity;BMP_temperature;BMP_pressure;BME280_temperature;BME280_humidity;BME280_pressure;Samples;Min_cycle;Max_cycle;Signal;HPM_P1;HPM_P2
2024/01/20 05:13:00;;;;;;;;;;;;;;;6.27;60.26;100904.90;106408;1257;61154;-84
2024/01/20 05:15:34;;;;;;;;;;;;;;;6.35;59.32;100909.02;106460;1253;74644;-84
2024/01/20 05:18:08;;;;;;;;;;;;;;;6.38;59.05;100908.81;106520;1253;67117;-82
2024/01/20 05:20:41;;;;;;;;;;;;;;;6.57;58.17;100902.58;106306;1255;71634;-82
2024/01/20 05:23:15;;;;;;;;;;;;;;;6.46;58.25;100905.53;106434;1257;61276;-83
2024/01/20 05:25:49;;;;;;;;;;;;;;;6.28;58.55;100912.41;106598;1253;61222;-82
2024/01/20 05:28:23;;;;;;;;;;;;;;;6.28;58.30;100911.27;106452;1254;74571;-82
2024/01/20 05:30:56;;;;;;;;;;;;;;;6.24;58.63;100913.19;106448;1253;68615;-82
2024/01/20 05:33:30;;;;;;;;;;;;;;;6.34;58.24;100917.70;106776;1254;73246;-84
2024/01/20 05:36:05;;;;;;;;;;;;;;;6.33;58.12;100924.78;106610;1252;61436;-82
2024/01/20 05:38:38;;;;;;;;;;;;;;;6.41;57.97;100923.55;106370;1253;61293;-84
2024/01/20 05:41:12;;;;;;;;;;;;;;;6.50;57.56;100936.60;106541;1253;73170;-84
2024/01/20 05:43:46;;;;;;;;;;;;;;;6.49;57.33;100940.79;106699;1253;67090;-84
2024/01/20 05:46:20;;;;;;;;;;;;;;;6.44;57.61;100940.59;106399;1253;72768;-84
2024/01/20 05:48:54;;;;;;;;;;;;;;;6.40;57.98;100951.59;106621;1254;61145;-82
2024/01/20 05:51:28;;;;;;;;;;;;;;;6.36;57.82;100953.17;106350;1253;60825;-84
2024/01/20 05:54:01;;;;;;;;;;;;;;;6.24;58.26;100958.35;106709;1253;73467;-84
2024/01/20 05:56:35;;;;;;;;;;;;;;;6.18;58.83;100962.98;106493;1253;69218;-84
2024/01/20 05:59:09;;;;;;;;;;;;;;;6.20;58.88;100963.63;106590;1258;72453;-83
2024/01/20 06:01:43;;;;;;;;;;;;;;;6.19;58.93;100962.60;106424;1253;61206;-84
2024/01/20 06:04:17;;;;;;;;;;;;;;;6.12;59.13;100960.42;106731;1252;61248;-84
2024/01/20 06:06:51;;;;;;;;;;;;;;;6.17;59.17;100968.03;106391;1253;75091;-84
2024/01/20 06:09:24;;;;;;;;;;;;;;;6.21;58.71;100969.85;106450;1257;67623;-83
2024/01/20 06:11:58;;;;;;;;;;;;;;;6.16;58.83;100977.34;106379;1253;72501;-82
2024/01/20 06:14:32;;;;;;;;;;;;;;;6.08;59.64;100982.38;106769;1253;61307;-83
2024/01/20 06:17:05;;;;;;;;;;;;;;;5.97;60.31;100985.32;106611;1253;62151;-84
2024/01/20 06:19:39;;;;;;;;;;;;;;;6.10;59.79;100989.45;106416;1253;72934;-83
2024/01/20 06:22:13;;;;;;;;;;;;;;;6.10;60.41;100996.58;106593;1253;68550;-84
2024/01/20 06:24:46;;;;;;;;;;;;;;;6.14;60.33;101003.02;106843;1253;73106;-84
2024/01/20 06:27:20;;;;;;;;;;;;;;;6.22;60.50;101007.98;106494;1257;61279;-83
2024/01/20 06:29:54;;;;;;;;;;;;;;;6.27;60.77;101017.27;106639;1257;61160;-83
2024/01/20 06:32:27;;;;;;;;;;;;;;;6.37;60.06;101022.98;106796;1251;74625;-84
2024/01/20 06:35:01;;;;;;;;;;;;;;;6.47;60.14;101028.34;106875;1253;68377;-85
2024/01/20 06:37:35;;;;;;;;;;;;;;;6.51;60.20;101028.60;107211;1256;72878;-82
2024/01/20 06:40:09;;;;;;;;;;;;;;;6.69;59.44;101031.59;106763;1257;61300;-82
2024/01/20 06:42:42;;;;;;;;;;;;;;;6.70;59.24;101031.60;106652;1253;60168;-83
2024/01/20 06:45:16;;;;;;;;;;;;;;;6.73;59.02;101034.73;107069;1252;73459;-82
2024/01/20 06:47:50;;;;;;;;;;;;;;;6.73;59.08;101042.00;106653;1253;68389;-83
2024/01/20 06:50:23;;;;;;;;;;;;;;;6.79;58.72;101046.45;106673;1254;72668;-83
2024/01/20 06:52:57;;;;;;;;;;;;;;;6.75;58.76;101051.70;106749;1253;61903;-83
2024/01/20 06:55:31;;;;;;;;;;;;;;;6.74;58.96;101058.36;106825;1252;61244;-82
2024/01/20 06:58:05;;;;;;;;;;;;;;;6.87;58.27;101057.05;107083;1252;74732;-83
2024/01/20 07:00:38;;;;;;;;;;;;;;;6.98;57.96;101058.86;106569;1253;68517;-82
2024/01/20 07:03:12;;;;;;;;;;;;;;;7.12;57.41;101061.31;106835;1256;73676;-82
2024/01/20 07:05:46;;;;;;;;;;;;;;;7.26;56.54;101070.52;107006;1253;61323;-84
2024/01/20 07:08:19;;;;;;;;;;;;;;;7.30;56.21;101078.25;106492;1253;61350;-82
2024/01/20 07:10:53;;;;;;;;;;;;;;;7.38;55.91;101087.20;106654;1257;74627;-83
2024/01/20 07:13:27;;;;;;;;;;;;;;;7.37;55.32;101093.94;106452;1253;67453;-83
2024/01/20 07:16:05;;;;;;;;;;;;;;;7.25;55.60;101091.75;106452;1253;72731;-84
2024/01/20 07:18:39;;;;;;;;;;;;;;;7.37;55.08;101094.63;106800;1253;61252;-83
2024/01/20 07:21:13;;;;;;;;;;;;;;;7.33;55.08;101094.89;106626;1252;61138;-83
2024/01/20 07:23:47;;;;;;;;;;;;;;;7.30;54.98;101100.33;106759;1253;74646;-82
2024/01/20 07:26:20;;;;;;;;;;;;;;;7.33;54.85;101099.84;106584;1257;68331;-82
2024/01/20 07:28:54;;;;;;;;;;;;;;;7.32;54.93;101102.87;106779;1253;73297;-85
2024/01/20 07:31:30;;;;;;;;;;;;;;;7.15;54.94;101107.47;106637;1253;61492;-82
2024/01/20 07:34:03;;;;;;;;;;;;;;;6.90;56.01;101111.45;106497;1257;61250;-84
2024/01/20 07:36:37;;;;;;;;;;;;;;;6.81;56.21;101119.38;106934;1253;73143;-85
2024/01/20 07:39:11;;;;;;;;;;;;;;;6.85;56.18;101125.45;107172;1253;68862;-82
2024/01/20 07:41:45;;;;;;;;;;;;;;;6.88;56.13;101131.02;106906;1253;72606;-89
2024/01/20 07:44:18;;;;;;;;;;;;;;;7.01;55.22;101138.42;106754;1253;61215;-84
2024/01/20 07:46:52;;;;;;;;;;;;;;;6.99;55.28;101145.95;106575;1252;61946;-81
2024/01/20 07:49:26;;;;;;;;;;;;;;;7.10;54.83;101152.00;106731;1253;75094;-83
2024/01/20 07:52:00;;;;;;;;;;;;;;;7.25;54.15;101153.03;107120;1253;68944;-83
2024/01/20 07:54:34;;;;;;;;;;;;;;;7.27;53.56;101160.99;106787;1253;72693;-83
2024/01/20 07:57:07;;;;;;;;;;;;;;;7.29;53.73;101157.56;107109;1256;61062;-84
2024/01/20 07:59:41;;;;;;;;;;;;;;;7.09;54.10;101165.84;106472;1258;61262;-84
2024/01/20 08:02:15;;;;;;;;;;;;;;;7.18;53.85;101171.75;106714;1253;74735;-83
2024/01/20 08:04:43;;;;;;;;;;;;;;;7.28;53.58;101176.95;106717;1256;71075;-82
2024/01/20 08:07:17;;;;;;;;;;;;;;;7.26;53.76;101176.60;106555;1258;74918;-82
2024/01/20 08:09:50;;;;;;;;;;;;;;;7.21;53.60;101182.19;106708;1256;61283;-80
2024/01/20 08:12:18;;;;;;;;;;;;;;;7.20;53.44;101185.00;107241;1256;61159;-80
2024/01/20 08:14:52;;;;;;;;;;;;;;;7.21;53.30;101187.24;106799;1256;73769;-81
2024/01/20 08:17:25;;;;;;;;;;;;;;;7.09;53.85;101188.61;106667;1253;68440;-80
2024/01/20 08:19:59;;;;;;;;;;;;;;;7.20;53.52;101191.03;106597;1253;72680;-80
2024/01/20 08:22:27;;;;;;;;;;;;;;;7.29;52.95;101189.76;106964;1257;61211;-81
2024/01/20 08:25:03;;;;;;;;;;;;;;;7.23;52.96;101190.27;106618;1259;61241;-84
2024/01/20 08:27:37;;;;;;;;;;;;;;;7.11;53.05;101205.30;106643;1253;73411;-84
2024/01/20 08:30:11;;;;;;;;;;;;;;;7.17;52.85;101207.10;106944;1253;68727;-83
2024/01/20 08:32:40;;;;;;;;;;;;;;;7.06;53.13;101203.98;106815;1253;72633;-84
2024/01/20 08:35:15;;;;;;;;;;;;;;;7.15;53.13;101202.66;106708;1253;61231;-84
2024/01/20 08:37:48;;;;;;;;;;;;;;;7.30;52.78;101203.09;106653;1253;61252;-84
2024/01/20 08:40:23;;;;;;;;;;;;;;;7.22;52.85;101201.44;106562;1253;75159;-84
2024/01/20 08:42:51;;;;;;;;;;;;;;;7.10;52.99;101201.52;106742;1259;67301;-84
2024/01/20 08:45:24;;;;;;;;;;;;;;;7.13;53.03;101203.80;106635;1253;72442;-84
2024/01/20 08:47:58;;;;;;;;;;;;;;;7.11;52.96;101202.69;106483;1253;61192;-83
2024/01/20 08:50:32;;;;;;;;;;;;;;;7.23;52.67;101204.69;106522;1257;61290;-84
2024/01/20 08:52:59;;;;;;;;;;;;;;;7.25;52.19;101212.27;106951;1253;74695;-84
2024/01/20 08:55:27;;;;;;;;;;;;;;;7.30;51.95;101216.14;106852;1259;67290;-85
2024/01/20 08:57:56;;;;;;;;;;;;;;;7.25;51.91;101218.91;106497;1257;71497;-85
2024/01/20 09:00:24;;;;;;;;;;;;;;;7.37;51.71;101213.67;106606;1258;61214;-83
2024/01/20 09:02:58;;;;;;;;;;;;;;;7.35;51.94;101224.41;106509;1253;61192;-86
2024/01/20 09:05:26;;;;;;;;;;;;;;;7.35;51.80;101226.04;106614;1257;73378;-84
2024/01/20 09:08:12;;;;;;;;;;;;;;;6.97;52.42;101228.30;106521;1256;67118;-85
2024/01/20 09:10:39;;;;;;;;;;;;;;;7.05;52.48;101227.36;106711;1253;71781;-86
2024/01/20 09:13:13;;;;;;;;;;;;;;;6.92;52.49;101224.16;106561;1253;61346;-82
2024/01/20 09:15:47;;;;;;;;;;;;;;;6.89;52.58;101231.03;106476;1257;61212;-83
2024/01/20 09:18:20;;;;;;;;;;;;;;;6.95;52.39;101230.47;106858;1253;73388;-83
2024/01/20 09:20:51;;;;;;;;;;;;;;;6.91;52.43;101236.96;106576;1253;68453;-83
2024/01/20 09:23:19;;;;;;;;;;;;;;;6.98;52.33;101239.33;106588;1258;72721;-84
2024/01/20 09:25:52;;;;;;;;;;;;;;;7.01;52.49;101239.89;106627;1256;61082;-84
2024/01/20 09:28:20;;;;;;;;;;;;;;;7.19;52.15;101243.52;106801;1255;60117;-84
2024/01/20 09:30:53;;;;;;;;;;;;;;;7.21;51.79;101248.89;106572;1253;73340;-83
2024/01/20 09:33:21;;;;;;;;;;;;;;;7.07;51.88;101247.27;106341;1253;67235;-84
2024/01/20 09:35:55;;;;;;;;;;;;;;;7.17;51.39;101253.81;106605;1253;72682;-84
2024/01/20 09:38:26;;;;;;;;;;;;;;;7.24;50.87;101253.31;106951;1253;61199;-83
2024/01/20 09:41:00;;;;;;;;;;;;;;;7.10;51.08;101249.67;106536;1254;61153;-83
2024/01/20 09:43:29;;;;;;;;;;;;;;;6.90;51.39;101249.15;106487;1253;76954;-84
2024/01/20 09:46:04;;;;;;;;;;;;;;;6.88;51.51;101247.70;106445;1252;68725;-85
2024/01/20 09:48:38;;;;;;;;;;;;;;;6.95;51.29;101248.73;106647;1253;71465;-83
2024/01/20 09:51:06;;;;;;;;;;;;;;;7.24;50.75;101251.88;106953;1253;61282;-82
2024/01/20 09:53:35;;;;;;;;;;;;;;;7.38;50.12;101245.06;106652;1253;61187;-82
2024/01/20 09:56:02;;;;;;;;;;;;;;;7.33;50.22;101245.02;106710;1255;73368;-83
2024/01/20 09:58:30;;;;;;;;;;;;;;;7.30;49.95;101241.39;106628;1256;67557;-83
2024/01/20 10:01:04;;;;;;;;;;;;;;;7.41;49.84;101244.05;106821;1258;72679;-83
2024/01/20 10:03:40;;;;;;;;;;;;;;;7.52;49.18;101245.05;106536;1253;61193;-85
2024/01/20 10:06:14;;;;;;;;;;;;;;;7.71;48.79;101247.96;106570;1253;61272;-85
2024/01/20 10:08:42;;;;;;;;;;;;;;;7.83;48.72;101249.89;106488;1254;73733;-85
2024/01/20 10:11:16;;;;;;;;;;;;;;;7.98;48.20;101249.69;107079;1253;68405;-86
2024/01/20 10:13:49;;;;;;;;;;;;;;;8.05;46.87;101246.94;106552;1254;71704;-87
2024/01/20 10:16:23;;;;;;;;;;;;;;;8.11;46.17;101253.21;106530;1259;61333;-88
2024/01/20 10:18:50;;;;;;;;;;;;;;;8.21;45.30;101254.05;106726;1258;61204;-87
2024/01/20 10:21:24;;;;;;;;;;;;;;;8.17;45.17;101257.45;106590;1253;77142;-87
2024/01/20 10:23:58;;;;;;;;;;;;;;;8.20;44.91;101250.64;106939;1253;69708;-87
2024/01/20 10:26:27;;;;;;;;;;;;;;;8.10;45.36;101253.90;106632;1253;74176;-87
2024/01/20 10:29:00;;;;;;;;;;;;;;;8.04;45.75;101253.79;106825;1253;61362;-87
2024/01/20 10:31:34;;;;;;;;;;;;;;;7.99;45.74;101259.82;106366;1252;61318;-87
2024/01/20 10:34:08;;;;;;;;;;;;;;;8.03;45.27;101262.75;106562;1256;75440;-87
2024/01/20 10:36:36;;;;;;;;;;;;;;;8.03;44.77;101268.23;106647;1253;69523;-84
2024/01/20 10:39:10;;;;;;;;;;;;;;;8.10;44.57;101269.70;106545;1254;75360;-87
2024/01/20 10:41:45;;;;;;;;;;;;;;;8.09;44.34;101272.54;106555;1253;61299;-87
2024/01/20 10:44:18;;;;;;;;;;;;;;;7.87;44.98;101270.96;106667;1253;61268;-87
2024/01/20 10:46:48;;;;;;;;;;;;;;;7.88;44.87;101274.35;107231;1257;74648;-87
2024/01/20 10:49:22;;;;;;;;;;;;;;;7.78;44.85;101268.66;106435;1253;68729;-86
2024/01/20 10:51:56;;;;;;;;;;;;;;;7.77;44.71;101268.52;106680;1254;72668;-86
2024/01/20 10:54:24;;;;;;;;;;;;;;;7.79;44.83;101270.58;106893;1253;61321;-89
2024/01/20 10:56:52;;;;;;;;;;;;;;;7.68;45.10;101267.81;106889;1256;60925;-87
2024/01/20 10:59:26;;;;;;;;;;;;;;;7.67;45.04;101264.86;106492;1258;76050;-87
2024/01/20 11:01:59;;;;;;;;;;;;;;;7.66;44.94;101258.14;106419;1258;68424;-87
2024/01/20 11:04:32;;;;;;;;;;;;;;;7.75;44.59;101259.89;106578;1258;72751;-89
2024/01/20 11:07:00;;;;;;;;;;;;;;;7.85;44.86;101266.52;106696;1257;61280;-88
2024/01/20 11:09:33;;;;;;;;;;;;;;;7.87;44.62;101271.99;106551;1255;60105;-87
2024/01/20 11:12:07;;;;;;;;;;;;;;;7.89;44.40;101271.66;106642;1251;75904;-87
2024/01/20 11:14:35;;;;;;;;;;;;;;;7.54;44.64;101277.30;106573;1258;68420;-87
2024/01/20 11:17:14;;;;;;;;;;;;;;;7.33;44.69;101275.86;106577;1259;72698;-87
2024/01/20 11:19:48;;;;;;;;;;;;;;;7.21;44.83;101280.38;106685;1253;62429;-88
2024/01/20 11:22:28;;;;;;;;;;;;;;;7.24;45.11;101280.67;106689;1253;61151;-88
2024/01/20 11:24:56;;;;;;;;;;;;;;;7.38;44.96;101284.43;106720;1253;74585;-85
2024/01/20 11:27:30;;;;;;;;;;;;;;;7.31;45.28;101289.77;106670;1253;69012;-82
2024/01/20 11:30:08;;;;;;;;;;;;;;;7.36;45.28;101286.14;107027;1253;72679;-85
2024/01/20 11:32:41;;;;;;;;;;;;;;;7.26;45.11;101289.79;106564;1253;61174;-85
2024/01/20 11:35:09;;;;;;;;;;;;;;;7.34;44.85;101284.75;106525;1253;61226;-86
2024/01/20 11:37:37;;;;;;;;;;;;;;;7.39;45.03;101290.94;106730;1256;76923;-85
2024/01/20 11:40:10;;;;;;;;;;;;;;;7.38;44.98;101297.52;107201;1253;67413;-85
2024/01/20 11:42:44;;;;;;;;;;;;;;;7.23;45.09;101300.50;106533;1253;71410;-85
2024/01/20 11:45:18;;;;;;;;;;;;;;;7.35;44.69;101305.10;106462;1253;61343;-85
2024/01/20 11:47:45;;;;;;;;;;;;;;;7.24;44.75;101305.13;106596;1253;61379;-86
2024/01/20 11:50:19;;;;;;;;;;;;;;;7.13;45.04;101302.80;106580;1256;74651;-86
2024/01/20 11:52:47;;;;;;;;;;;;;;;7.20;45.25;101308.57;107215;1253;70321;-85
2024/01/20 11:55:14;;;;;;;;;;;;;;;7.21;45.11;101302.91;106379;1258;72666;-85
2024/01/20 11:57:48;;;;;;;;;;;;;;;7.03;45.78;101297.71;106567;1258;61199;-86
2024/01/20 12:00:22;;;;;;;;;;;;;;;7.05;46.13;101305.70;106641;1259;61079;-86
2024/01/20 12:02:50;;;;;;;;;;;;;;;7.10;46.27;101302.79;106562;1256;74608;-86
2024/01/20 12:05:19;;;;;;;;;;;;;;;6.93;46.71;101305.75;106631;1253;67141;-86
2024/01/20 12:07:53;;;;;;;;;;;;;;;6.93;46.51;101306.55;106582;1254;73695;-86
2024/01/20 12:10:27;;;;;;;;;;;;;;;6.86;46.37;101306.61;106530;1254;61082;-86
2024/01/20 12:12:54;;;;;;;;;;;;;;;6.87;46.24;101312.23;106692;1257;61350;-86
2024/01/20 12:15:41;;;;;;;;;;;;;;;6.86;46.22;101320.73;107279;1255;74662;-83
2024/01/20 12:18:16;;;;;;;;;;;;;;;6.72;46.60;101323.21;107220;1253;203379;-83
2024/01/20 12:20:50;;;;;;;;;;;;;;;6.71;46.67;101331.38;106737;1259;73760;-83
2024/01/20 12:23:21;;;;;;;;;;;;;;;6.81;46.54;101343.30;106639;1253;61337;-83
2024/01/20 12:25:56;;;;;;;;;;;;;;;6.85;46.70;101339.48;107029;1253;61522;-83
2024/01/20 12:28:24;;;;;;;;;;;;;;;6.70;46.49;101341.83;106580;1253;76574;-87
2024/01/20 12:30:52;;;;;;;;;;;;;;;6.63;46.61;101342.48;106255;1253;68325;-93
2024/01/20 12:33:20;;;;;;;;;;;;;;;6.54;46.71;101347.55;106271;1255;72670;-87
2024/01/20 12:35:48;;;;;;;;;;;;;;;6.56;46.54;101352.86;106833;1253;61642;-87
2024/01/20 12:38:21;;;;;;;;;;;;;;;6.57;46.40;101357.45;106524;1255;61778;-87
2024/01/20 12:40:49;;;;;;;;;;;;;;;6.46;46.69;101355.38;106323;1258;75346;-87
2024/01/20 12:43:17;;;;;;;;;;;;;;;6.31;47.19;101358.28;106417;1257;68390;-80
2024/01/20 12:45:51;;;;;;;;;;;;;;;6.21;47.39;101356.25;106736;1254;73797;-87
2024/01/20 12:48:25;;;;;;;;;;;;;;;6.32;47.48;101366.17;106485;1257;61305;-86
2024/01/20 12:50:53;;;;;;;;;;;;;;;6.38;46.92;101374.54;106387;1254;61206;-86
2024/01/20 12:53:21;;;;;;;;;;;;;;;6.49;46.60;101370.67;106594;1253;75527;-86
2024/01/20 12:55:55;;;;;;;;;;;;;;;6.46;46.47;101371.92;106581;1253;68386;-80
2024/01/20 12:58:23;;;;;;;;;;;;;;;6.57;45.82;101380.88;106705;1258;73698;-80
2024/01/20 13:00:54;;;;;;;;;;;;;;;6.56;45.58;101377.92;106377;1259;61129;-86
2024/01/20 13:03:23;;;;;;;;;;;;;;;6.57;45.59;101375.65;106495;1257;61070;-86
2024/01/20 13:05:51;;;;;;;;;;;;;;;6.91;45.26;101373.29;106499;1253;74749;-80
2024/01/20 13:08:19;;;;;;;;;;;;;;;6.97;45.21;101374.48;106819;1257;69880;-80
2024/01/20 13:10:49;;;;;;;;;;;;;;;7.10;44.73;101376.11;106421;1253;71431;-87
2024/01/20 13:13:23;;;;;;;;;;;;;;;7.25;44.59;101374.91;106524;1254;61241;-86
2024/01/20 13:16:00;;;;;;;;;;;;;;;7.31;44.45;101377.45;106385;1253;61139;-86
2024/01/20 13:18:34;;;;;;;;;;;;;;;7.18;44.84;101379.41;106645;1253;73451;-86
2024/01/20 13:21:02;;;;;;;;;;;;;;;7.08;44.89;101378.50;106740;1253;68382;-78
2024/01/20 13:23:36;;;;;;;;;;;;;;;7.17;44.61;101382.58;106513;1258;74103;-79
2024/01/20 13:26:04;;;;;;;;;;;;;;;7.01;44.81;101382.36;106704;1257;61314;-86
2024/01/20 13:28:37;;;;;;;;;;;;;;;7.11;44.66;101381.67;107077;1253;61245;-86
2024/01/20 13:31:05;;;;;;;;;;;;;;;7.16;44.44;101379.62;106613;1254;73385;-87
2024/01/20 13:33:39;;;;;;;;;;;;;;;7.13;44.66;101382.61;106464;1253;69706;-87
2024/01/20 13:36:13;;;;;;;;;;;;;;;7.09;44.70;101382.57;106657;1253;74473;-87
2024/01/20 13:38:46;;;;;;;;;;;;;;;7.13;44.59;101379.85;106589;1254;61298;-87
2024/01/20 13:41:15;;;;;;;;;;;;;;;7.20;44.50;101382.77;106713;1254;61158;-80
2024/01/20 13:43:48;;;;;;;;;;;;;;;7.15;44.52;101393.40;106507;1258;72763;-80
2024/01/20 13:46:17;;;;;;;;;;;;;;;7.08;44.19;101398.58;106534;1259;67438;-80
2024/01/20 13:48:50;;;;;;;;;;;;;;;6.98;44.60;101397.89;106423;1259;73723;-87
2024/01/20 13:51:27;;;;;;;;;;;;;;;6.85;45.10;101400.75;106499;1255;61882;-87
2024/01/20 13:54:01;;;;;;;;;;;;;;;6.73;44.95;101401.66;107093;1257;62123;-87
2024/01/20 13:56:28;;;;;;;;;;;;;;;6.58;45.18;101404.68;106561;1256;77055;-87
2024/01/20 13:59:02;;;;;;;;;;;;;;;6.63;45.29;101401.67;106587;1257;69118;-87
2024/01/20 14:01:30;;;;;;;;;;;;;;;6.63;45.01;101403.73;106516;1255;71349;-81
2024/01/20 14:04:00;;;;;;;;;;;;;;;6.70;44.75;101398.34;106579;1255;61330;-79
2024/01/20 14:06:34;;;;;;;;;;;;;;;6.66;44.48;101405.45;106767;1254;61770;-80
2024/01/20 14:09:04;;;;;;;;;;;;;;;6.47;44.73;101410.30;106542;1254;75637;-88
2024/01/20 14:11:37;;;;;;;;;;;;;;;6.38;44.42;101407.60;106616;1256;68679;-80
2024/01/20 14:14:05;;;;;;;;;;;;;;;6.37;44.02;101410.04;106545;1257;72757;-80
2024/01/20 14:16:39;;;;;;;;;;;;;;;6.41;44.07;101408.28;106967;1255;61431;-80
2024/01/20 14:19:07;;;;;;;;;;;;;;;6.25;44.27;101410.27;106332;1257;61186;-87
2024/01/20 14:21:43;;;;;;;;;;;;;;;6.33;44.42;101407.95;106515;1254;76627;-80
2024/01/20 14:24:17;;;;;;;;;;;;;;;6.50;44.08;101414.35;106465;1254;67123;-86
2024/01/20 14:26:51;;;;;;;;;;;;;;;6.50;44.20;101414.94;107425;1258;72756;-86
2024/01/20 14:29:18;;;;;;;;;;;;;;;6.28;44.07;101416.38;106533;1255;61827;-86
2024/01/20 14:31:53;;;;;;;;;;;;;;;6.22;44.02;101412.86;106527;1253;61327;-87
2024/01/20 14:34:27;;;;;;;;;;;;;;;6.18;44.04;101416.86;106452;1252;76630;-80
2024/01/20 14:36:56;;;;;;;;;;;;;;;5.98;44.37;101414.46;106700;1256;67100;-84
2024/01/20 14:39:31;;;;;;;;;;;;;;;5.70;44.72;101420.69;106746;1255;73719;-79
2024/01/20 14:42:05;;;;;;;;;;;;;;;5.52;45.01;101422.02;106372;1254;61576;-85
2024/01/20 14:44:37;;;;;;;;;;;;;;;5.74;44.75;101430.02;106526;1257;61549;-79
2024/01/20 14:47:05;;;;;;;;;;;;;;;5.43;45.30;101434.40;106598;1254;76717;-86
2024/01/20 14:49:39;;;;;;;;;;;;;;;5.42;44.98;101437.95;106774;1254;69773;-85
2024/01/20 14:52:07;;;;;;;;;;;;;;;5.36;44.95;101438.91;106673;1255;72405;-79
2024/01/20 14:54:41;;;;;;;;;;;;;;;5.24;45.46;101441.58;106323;1259;61354;-78
2024/01/20 14:57:09;;;;;;;;;;;;;;;5.07;45.89;101447.74;106771;1256;61176;-84
2024/01/20 14:59:43;;;;;;;;;;;;;;;4.54;46.54;101447.28;106708;1254;73622;-88
2024/01/20 15:02:17;;;;;;;;;;;;;;;4.40;46.72;101452.55;106574;1254;69649;-86
2024/01/20 15:04:50;;;;;;;;;;;;;;;4.74;46.16;101452.66;106478;1254;72780;-86
2024/01/20 15:07:18;;;;;;;;;;;;;;;4.64;46.27;101458.95;106585;1254;61197;-87
2024/01/20 15:09:52;;;;;;;;;;;;;;;4.51;46.53;101462.95;106587;1254;61263;-86
2024/01/20 15:12:20;;;;;;;;;;;;;;;4.58;46.44;101462.22;107140;1253;75830;-85
2024/01/20 15:14:48;;;;;;;;;;;;;;;4.64;46.44;101462.35;106418;1254;70779;-85
2024/01/20 15:17:21;;;;;;;;;;;;;;;4.74;46.35;101462.85;106631;1257;72493;-84
2024/01/20 15:19:49;;;;;;;;;;;;;;;4.98;46.20;101461.52;106581;1253;61337;-84
2024/01/20 15:22:18;;;;;;;;;;;;;;;5.01;46.23;101461.29;106877;1253;61192;-86
2024/01/20 15:24:52;;;;;;;;;;;;;;;5.00;46.14;101464.79;106882;1254;73438;-79
2024/01/20 15:27:26;;;;;;;;;;;;;;;5.01;46.20;101464.91;106690;1255;70278;-79
2024/01/20 15:29:53;;;;;;;;;;;;;;;5.09;46.05;101468.61;106633;1258;72640;-79
2024/01/20 15:32:25;;;;;;;;;;;;;;;5.06;46.35;101468.13;106619;1254;61186;-79
2024/01/20 15:34:58;;;;;;;;;;;;;;;5.03;46.44;101466.11;106809;1254;61184;-79
2024/01/20 15:37:26;;;;;;;;;;;;;;;4.99;46.61;101469.64;106908;1254;75564;-86
2024/01/20 15:39:53;;;;;;;;;;;;;;;5.06;46.58;101467.64;106683;1254;67406;-85
2024/01/20 15:42:26;;;;;;;;;;;;;;;5.09;46.34;101465.23;106568;1254;75139;-86
2024/01/20 15:45:00;;;;;;;;;;;;;;;5.09;46.04;101468.77;106755;1254;61305;-86
2024/01/20 15:47:29;;;;;;;;;;;;;;;4.87;46.88;101470.11;106943;1254;61904;-86
2024/01/20 15:49:56;;;;;;;;;;;;;;;4.78;46.82;101464.33;106601;1254;75000;-85
2024/01/20 15:52:31;;;;;;;;;;;;;;;4.80;46.97;101466.58;107281;1253;68366;-79
2024/01/20 15:55:00;;;;;;;;;;;;;;;4.83;47.03;101475.39;106736;1254;73427;-79
2024/01/20 15:57:33;;;;;;;;;;;;;;;4.88;46.95;101473.23;107000;1254;61336;-79
2024/01/20 16:00:02;;;;;;;;;;;;;;;5.01;46.71;101474.86;106776;1254;62412;-79
2024/01/20 16:02:41;;;;;;;;;;;;;;;5.17;46.06;101478.20;106639;1254;74907;-80
2024/01/20 16:05:09;;;;;;;;;;;;;;;5.29;45.99;101485.80;106712;1259;71365;-79
2024/01/20 16:07:37;;;;;;;;;;;;;;;5.38;45.83;101485.42;106802;1254;73997;-85
2024/01/20 16:10:05;;;;;;;;;;;;;;;5.40;45.76;101484.75;107083;1258;61252;-86
2024/01/20 16:12:40;;;;;;;;;;;;;;;5.46;45.65;101481.63;106838;1257;61155;-85
2024/01/20 16:15:10;;;;;;;;;;;;;;;5.53;45.27;101483.53;106890;1257;76839;-85
2024/01/20 16:17:40;;;;;;;;;;;;;;;5.53;45.06;101483.06;106746;1254;70939;-80
2024/01/20 16:20:09;;;;;;;;;;;;;;;5.58;45.26;101483.98;107059;1257;73057;-86
2024/01/20 16:22:42;;;;;;;;;;;;;;;5.60;45.23;101479.64;106568;1255;61282;-85
2024/01/20 16:25:13;;;;;;;;;;;;;;;5.64;45.05;101479.85;106662;1254;61225;-85
2024/01/20 16:27:41;;;;;;;;;;;;;;;5.59;44.95;101479.51;106441;1254;75433;-85
2024/01/20 16:30:15;;;;;;;;;;;;;;;5.57;45.56;101479.82;106691;1254;69851;-86
2024/01/20 16:32:50;;;;;;;;;;;;;;;5.64;45.09;101487.36;106460;1254;72708;-85
2024/01/20 16:35:19;;;;;;;;;;;;;;;5.69;45.31;101490.84;106459;1258;61281;-85
2024/01/20 16:37:48;;;;;;;;;;;;;;;5.72;45.09;101495.06;106518;1252;61963;-85
2024/01/20 16:40:24;;;;;;;;;;;;;;;5.69;44.86;101500.19;106772;1254;76532;-85
2024/01/20 16:42:52;;;;;;;;;;;;;;;5.66;45.02;101500.70;106475;1254;68781;-80
2024/01/20 16:45:25;;;;;;;;;;;;;;;5.70;45.19;101497.16;106605;1257;73694;-80
2024/01/20 16:47:55;;;;;;;;;;;;;;;5.66;45.10;101499.95;106597;1255;61264;-80
2024/01/20 16:50:30;;;;;;;;;;;;;;;5.69;45.07;101502.30;106513;1257;60461;-80
2024/01/20 16:53:04;;;;;;;;;;;;;;;5.75;45.00;101499.66;106610;1254;73439;-80
2024/01/20 16:55:31;;;;;;;;;;;;;;;5.85;44.93;101494.78;106697;1254;67604;-85
2024/01/20 16:58:04;;;;;;;;;;;;;;;5.85;44.95;101500.36;106554;1257;70238;-85
2024/01/20 17:00:38;;;;;;;;;;;;;;;5.80;44.70;101495.54;106832;1257;62576;-85
2024/01/20 17:03:13;;;;;;;;;;;;;;;5.91;44.77;101501.33;106775;1257;62172;-85
2024/01/20 17:05:41;;;;;;;;;;;;;;;5.97;44.59;101506.54;106583;1254;76582;-85
2024/01/20 17:08:16;;;;;;;;;;;;;;;5.88;44.72;101505.70;106342;1254;70680;-85
2024/01/20 17:10:51;;;;;;;;;;;;;;;5.49;45.48;101502.11;106466;1254;72705;-86
2024/01/20 17:13:25;;;;;;;;;;;;;;;5.47;45.76;101504.17;106881;1254;61321;-85
2024/01/20 17:15:54;;;;;;;;;;;;;;;5.61;45.71;101497.65;106414;1255;61256;-86
2024/01/20 17:18:30;;;;;;;;;;;;;;;5.47;45.65;101494.63;106444;1254;76680;-85
2024/01/20 17:21:06;;;;;;;;;;;;;;;5.42;45.96;101496.95;106649;1257;68398;-85
2024/01/20 17:23:41;;;;;;;;;;;;;;;5.43;46.13;101491.65;106887;1254;72701;-85
2024/01/20 17:26:11;;;;;;;;;;;;;;;5.42;45.83;101492.29;106470;1257;61331;-85
2024/01/20 17:28:46;;;;;;;;;;;;;;;5.37;46.21;101495.41;106728;1253;60865;-80
2024/01/20 17:31:21;;;;;;;;;;;;;;;5.26;46.52;101492.81;106456;1257;76565;-80
2024/01/20 17:33:55;;;;;;;;;;;;;;;5.23;46.53;101491.20;106791;1254;69395;-85
2024/01/20 17:36:24;;;;;;;;;;;;;;;5.21;46.50;101491.50;106369;1251;72639;-80
2024/01/20 17:39:00;;;;;;;;;;;;;;;5.22;46.40;101494.13;106468;1252;62541;-80
2024/01/20 17:41:35;;;;;;;;;;;;;;;5.17;46.74;101499.08;106494;1258;62426;-80
2024/01/20 17:44:09;;;;;;;;;;;;;;;5.13;46.53;101496.06;106517;1254;76046;-86
2024/01/20 17:46:39;;;;;;;;;;;;;;;5.10;46.40;101503.16;106767;1254;67225;-85
2024/01/20 17:49:15;;;;;;;;;;;;;;;5.10;46.38;101506.30;106593;1254;72722;-85
2024/01/20 17:51:50;;;;;;;;;;;;;;;5.02;46.32;101507.16;106522;1254;62472;-85
2024/01/20 17:54:18;;;;;;;;;;;;;;;4.81;46.62;101506.52;106401;1255;61231;-85
2024/01/20 17:56:54;;;;;;;;;;;;;;;4.67;46.85;101505.46;106839;1253;77003;-84
2024/01/20 17:59:30;;;;;;;;;;;;;;;4.58;46.62;101500.36;106553;1254;69817;-85
2024/01/20 18:02:05;;;;;;;;;;;;;;;4.53;46.79;101505.05;106500;1258;74678;-85
2024/01/20 18:04:34;;;;;;;;;;;;;;;4.40;47.16;101504.09;106440;1254;61612;-85
2024/01/20 18:07:09;;;;;;;;;;;;;;;4.43;47.00;101501.76;106652;1253;61197;-85
2024/01/20 18:09:45;;;;;;;;;;;;;;;4.39;47.04;101496.90;106539;1253;74721;-80
2024/01/20 18:12:19;;;;;;;;;;;;;;;4.24;47.41;101500.52;106691;1254;70697;-79